createdAt,value
2018-07-26T00:00:14.178Z,970.84
2018-07-26T00:01:14.178Z,970.81
2018-07-26T00:02:14.201Z,970.82
2018-07-26T00:03:14.184Z,970.78
2018-07-26T00:04:14.182Z,970.75
2018-07-26T00:05:14.181Z,970.78
2018-07-26T00:06:14.177Z,970.75
2018-07-26T00:07:14.178Z,970.77
2018-07-26T00:08:14.177Z,970.76
2018-07-26T00:09:14.216Z,970.75
2018-07-26T00:10:14.222Z,970.73
2018-07-26T00:11:14.174Z,970.76
2018-07-26T00:12:14.175Z,970.75
2018-07-26T00:13:14.176Z,970.75
2018-07-26T00:14:14.175Z,970.78
2018-07-26T00:15:14.169Z,970.79
2018-07-26T00:16:14.168Z,970.78
2018-07-26T00:17:14.167Z,970.76
2018-07-26T00:18:14.175Z,970.80
2018-07-26T00:19:14.173Z,970.74
2018-07-26T00:20:14.191Z,970.75
2018-07-26T00:21:14.167Z,970.75
2018-07-26T00:22:14.166Z,970.73
2018-07-26T00:23:14.166Z,970.76
2018-07-26T00:24:14.164Z,970.80
2018-07-26T00:25:14.164Z,970.80
2018-07-26T00:26:14.163Z,970.80
2018-07-26T00:27:14.212Z,970.80
2018-07-26T00:28:14.166Z,970.78
2018-07-26T00:29:14.166Z,970.82
2018-07-26T00:30:14.159Z,970.82
2018-07-26T00:31:14.161Z,970.78
2018-07-26T00:32:14.159Z,970.79
2018-07-26T00:33:14.158Z,970.79
2018-07-26T00:34:14.156Z,970.82
2018-07-26T00:35:14.157Z,970.79
2018-07-26T00:36:14.154Z,970.83
2018-07-26T00:37:14.153Z,970.83
2018-07-26T00:38:14.157Z,970.80
2018-07-26T00:39:14.159Z,970.80
2018-07-26T00:40:14.151Z,970.77
2018-07-26T00:41:14.181Z,970.82
2018-07-26T00:42:14.151Z,970.76
2018-07-26T00:43:14.152Z,970.80
2018-07-26T00:44:14.148Z,970.75
2018-07-26T00:45:14.154Z,970.78
2018-07-26T00:46:14.148Z,970.75
2018-07-26T00:47:14.147Z,970.79
2018-07-26T00:48:14.142Z,970.80
2018-07-26T00:49:14.145Z,970.74
2018-07-26T00:50:14.147Z,970.76
2018-07-26T00:51:14.145Z,970.80
2018-07-26T00:52:14.140Z,970.76
2018-07-26T00:53:14.137Z,970.81
2018-07-26T00:54:14.140Z,970.82
2018-07-26T00:55:14.137Z,970.79
2018-07-26T00:56:14.134Z,970.74
2018-07-26T00:57:14.135Z,970.84
2018-07-26T00:58:14.134Z,970.75
2018-07-26T00:59:14.132Z,970.77
2018-07-26T01:00:14.130Z,970.75
2018-07-26T01:01:14.133Z,970.74
2018-07-26T01:02:14.134Z,970.77
2018-07-26T01:03:14.126Z,970.74
2018-07-26T01:04:14.138Z,970.73
2018-07-26T01:05:14.126Z,970.71
2018-07-26T01:06:14.128Z,970.76
2018-07-26T01:07:14.122Z,970.76
2018-07-26T01:08:14.266Z,970.74
2018-07-26T01:09:14.128Z,970.78
2018-07-26T01:10:14.124Z,970.82
2018-07-26T01:11:14.120Z,970.81
2018-07-26T01:12:14.117Z,970.85
2018-07-26T01:13:14.122Z,970.84
2018-07-26T01:14:14.114Z,970.81
2018-07-26T01:15:14.119Z,970.85
2018-07-26T01:16:14.113Z,970.83
2018-07-26T01:17:14.117Z,970.91
2018-07-26T01:18:14.117Z,970.88
2018-07-26T01:19:14.111Z,970.89
2018-07-26T01:20:14.112Z,970.87
2018-07-26T01:21:14.106Z,970.86
2018-07-26T01:22:14.107Z,970.85
2018-07-26T01:23:14.106Z,970.87
2018-07-26T01:24:14.107Z,970.89
2018-07-26T01:25:14.103Z,970.87
2018-07-26T01:26:14.102Z,970.87
2018-07-26T01:27:14.104Z,970.86
2018-07-26T01:28:14.104Z,970.88
2018-07-26T01:29:14.099Z,970.83
2018-07-26T01:30:14.097Z,970.87
2018-07-26T01:31:14.096Z,970.80
2018-07-26T01:32:14.096Z,970.83
2018-07-26T01:33:14.098Z,970.80
2018-07-26T01:34:14.090Z,970.80
2018-07-26T01:35:14.118Z,970.75
2018-07-26T01:36:14.095Z,970.78
2018-07-26T01:37:14.093Z,970.77
2018-07-26T01:38:14.088Z,970.75
2018-07-26T01:39:14.091Z,970.79
2018-07-26T01:40:14.084Z,970.71
2018-07-26T01:41:14.092Z,970.74
2018-07-26T01:42:14.088Z,970.71
2018-07-26T01:43:14.081Z,970.67
2018-07-26T01:44:14.079Z,970.69
2018-07-26T01:45:14.077Z,970.66
2018-07-26T01:46:14.077Z,970.65
2018-07-26T01:47:14.080Z,970.69
2018-07-26T01:48:14.075Z,970.67
2018-07-26T01:49:14.073Z,970.66
2018-07-26T01:50:14.076Z,970.67
2018-07-26T01:51:14.072Z,970.66
2018-07-26T01:52:14.073Z,970.66
2018-07-26T01:53:14.066Z,970.63
2018-07-26T01:54:14.065Z,970.62
2018-07-26T01:55:14.065Z,970.65
2018-07-26T01:56:14.064Z,970.65
2018-07-26T01:57:14.079Z,970.63
2018-07-26T01:58:14.062Z,970.66
2018-07-26T01:59:14.059Z,970.68
2018-07-26T02:00:14.058Z,970.69
2018-07-26T02:01:14.062Z,970.69
2018-07-26T02:02:14.060Z,970.69
2018-07-26T02:03:14.056Z,970.66
2018-07-26T02:04:14.060Z,970.66
2018-07-26T02:05:14.060Z,970.69
2018-07-26T02:06:14.053Z,970.70
2018-07-26T02:07:14.049Z,970.73
2018-07-26T02:08:14.047Z,970.72
2018-07-26T02:09:14.056Z,970.75
2018-07-26T02:10:14.052Z,970.71
2018-07-26T02:11:14.046Z,970.71
2018-07-26T02:12:14.048Z,970.71
2018-07-26T02:13:14.045Z,970.70
2018-07-26T02:14:14.045Z,970.70
2018-07-26T02:15:14.040Z,970.72
2018-07-26T02:16:14.037Z,970.67
2018-07-26T02:17:14.037Z,970.72
2018-07-26T02:18:14.034Z,970.71
2018-07-26T02:19:14.033Z,970.74
2018-07-26T02:20:14.032Z,970.74
2018-07-26T02:21:14.032Z,970.75
2018-07-26T02:22:14.031Z,970.72
2018-07-26T02:23:14.032Z,970.68
2018-07-26T02:24:14.028Z,970.70
2018-07-26T02:25:14.024Z,970.65
2018-07-26T02:26:14.027Z,970.67
2018-07-26T02:27:14.031Z,970.69
2018-07-26T02:28:14.024Z,970.67
2018-07-26T02:29:14.018Z,970.65
2018-07-26T02:30:14.021Z,970.66
2018-07-26T02:31:14.017Z,970.65
2018-07-26T02:32:14.011Z,970.67
2018-07-26T02:33:14.017Z,970.64
2018-07-26T02:34:14.016Z,970.64
2018-07-26T02:35:14.018Z,970.60
2018-07-26T02:36:14.008Z,970.60
2018-07-26T02:37:14.007Z,970.65
2018-07-26T02:38:14.009Z,970.62
2018-07-26T02:39:14.002Z,970.66
2018-07-26T02:40:14.001Z,970.61
2018-07-26T02:41:13.999Z,970.63
2018-07-26T02:42:14.002Z,970.63
2018-07-26T02:43:13.997Z,970.61
2018-07-26T02:44:13.995Z,970.61
2018-07-26T02:45:13.993Z,970.59
2018-07-26T02:46:13.998Z,970.64
2018-07-26T02:47:13.992Z,970.65
2018-07-26T02:48:13.987Z,970.67
2018-07-26T02:49:13.987Z,970.65
2018-07-26T02:50:13.987Z,970.67
2018-07-26T02:51:13.990Z,970.68
2018-07-26T02:52:13.983Z,970.65
2018-07-26T02:53:13.982Z,970.68
2018-07-26T02:54:13.979Z,970.67
2018-07-26T02:55:13.985Z,970.66
2018-07-26T02:56:13.976Z,970.65
2018-07-26T02:57:13.975Z,970.67
2018-07-26T02:58:13.974Z,970.65
2018-07-26T02:59:13.970Z,970.68
2018-07-26T03:00:13.971Z,970.66
2018-07-26T03:01:14.000Z,970.65
2018-07-26T03:02:13.970Z,970.67
2018-07-26T03:03:13.966Z,970.67
2018-07-26T03:04:13.962Z,970.66
2018-07-26T03:05:14.015Z,970.67
2018-07-26T03:06:13.964Z,970.65
2018-07-26T03:07:14.059Z,970.67
2018-07-26T03:08:13.955Z,970.66
2018-07-26T03:09:13.960Z,970.68
2018-07-26T03:10:13.956Z,970.66
2018-07-26T03:11:13.958Z,970.67
2018-07-26T03:12:13.955Z,970.63
2018-07-26T03:13:13.947Z,970.63
2018-07-26T03:14:13.947Z,970.63
2018-07-26T03:15:13.945Z,970.63
2018-07-26T03:16:13.958Z,970.65
2018-07-26T03:17:13.942Z,970.64
2018-07-26T03:18:13.938Z,970.66
2018-07-26T03:19:13.939Z,970.64
2018-07-26T03:20:13.945Z,970.65
2018-07-26T03:21:13.966Z,970.65
2018-07-26T03:22:13.934Z,970.70
2018-07-26T03:23:13.931Z,970.71
2018-07-26T03:24:13.943Z,970.67
2018-07-26T03:25:13.927Z,970.73
2018-07-26T03:26:13.930Z,970.70
2018-07-26T03:27:13.927Z,970.71
2018-07-26T03:28:13.921Z,970.70
2018-07-26T03:29:13.919Z,970.70
2018-07-26T03:30:13.919Z,970.75
2018-07-26T03:31:13.918Z,970.76
2018-07-26T03:32:13.914Z,970.76
2018-07-26T03:33:13.918Z,970.80
2018-07-26T03:34:13.910Z,970.80
2018-07-26T03:35:13.909Z,970.79
2018-07-26T03:36:13.912Z,970.79
2018-07-26T03:37:13.910Z,970.76
2018-07-26T03:38:13.938Z,970.78
2018-07-26T03:39:13.903Z,970.81
2018-07-26T03:40:13.904Z,970.80
2018-07-26T03:41:13.898Z,970.80
2018-07-26T03:42:13.897Z,970.80
2018-07-26T03:43:13.896Z,970.76
2018-07-26T03:44:13.899Z,970.79
2018-07-26T03:45:13.913Z,970.77
2018-07-26T03:46:13.891Z,970.77
2018-07-26T03:47:13.889Z,970.76
2018-07-26T03:48:13.886Z,970.77
2018-07-26T03:49:13.883Z,970.77
2018-07-26T03:50:13.885Z,970.78
2018-07-26T03:51:13.954Z,970.76
2018-07-26T03:52:13.877Z,970.77
2018-07-26T03:53:13.875Z,970.79
2018-07-26T03:54:13.875Z,970.77
2018-07-26T03:55:13.880Z,970.78
2018-07-26T03:56:13.870Z,970.79
2018-07-26T03:57:13.869Z,970.78
2018-07-26T03:58:13.867Z,970.76
2018-07-26T03:59:13.871Z,970.82
2018-07-26T04:00:13.894Z,970.81
2018-07-26T04:01:13.872Z,970.78
2018-07-26T04:02:13.859Z,970.82
2018-07-26T04:03:13.903Z,970.83
2018-07-26T04:04:13.861Z,970.88
2018-07-26T04:05:13.854Z,970.86
2018-07-26T04:06:13.855Z,970.87
2018-07-26T04:07:13.851Z,970.88
2018-07-26T04:08:13.850Z,970.88
2018-07-26T04:09:13.847Z,970.87
2018-07-26T04:10:13.844Z,970.88
2018-07-26T04:11:13.842Z,970.90
2018-07-26T04:12:13.847Z,970.91
2018-07-26T04:13:13.842Z,970.93
2018-07-26T04:14:13.841Z,970.92
2018-07-26T04:15:13.837Z,970.97
2018-07-26T04:16:13.832Z,970.95
2018-07-26T04:17:13.830Z,970.97
2018-07-26T04:18:13.833Z,970.95
2018-07-26T04:19:13.831Z,970.99
2018-07-26T04:20:13.824Z,970.98
2018-07-26T04:21:13.825Z,970.94
2018-07-26T04:22:13.827Z,970.98
2018-07-26T04:23:13.820Z,971.01
2018-07-26T04:24:13.820Z,970.98
2018-07-26T04:25:13.816Z,971.01
2018-07-26T04:26:13.815Z,970.99
2018-07-26T04:27:13.818Z,970.99
2018-07-26T04:28:13.809Z,971.01
2018-07-26T04:29:13.808Z,971.02
2018-07-26T04:30:13.809Z,971.03
2018-07-26T04:31:13.811Z,971.02
2018-07-26T04:32:13.871Z,971.02
2018-07-26T04:33:13.808Z,971.00
2018-07-26T04:34:13.806Z,971.02
2018-07-26T04:35:13.803Z,970.99
2018-07-26T04:36:13.800Z,971.01
2018-07-26T04:37:13.797Z,971.03
2018-07-26T04:38:13.794Z,971.06
2018-07-26T04:39:13.797Z,971.09
2018-07-26T04:40:13.835Z,971.07
2018-07-26T04:41:13.789Z,971.09
2018-07-26T04:42:13.793Z,971.10
2018-07-26T04:43:13.793Z,971.13
2018-07-26T04:44:13.786Z,971.14
2018-07-26T04:45:13.789Z,971.15
2018-07-26T04:46:13.785Z,971.13
2018-07-26T04:47:13.784Z,971.17
2018-07-26T04:48:13.785Z,971.17
2018-07-26T04:49:13.802Z,971.25
2018-07-26T04:50:13.788Z,971.23
2018-07-26T04:51:13.786Z,971.22
2018-07-26T04:52:13.792Z,971.19
2018-07-26T04:53:13.789Z,971.22
2018-07-26T04:54:13.792Z,971.22
2018-07-26T04:55:13.795Z,971.21
2018-07-26T04:56:13.794Z,971.23
2018-07-26T04:57:13.798Z,971.23
2018-07-26T04:58:13.800Z,971.24
2018-07-26T04:59:13.805Z,971.27
2018-07-26T05:00:13.804Z,971.20
2018-07-26T05:01:13.809Z,971.27
2018-07-26T05:02:13.811Z,971.28
2018-07-26T05:03:13.820Z,971.28
2018-07-26T05:04:13.818Z,971.31
2018-07-26T05:05:13.824Z,971.33
2018-07-26T05:06:13.830Z,971.35
2018-07-26T05:07:13.832Z,971.38
2018-07-26T05:08:13.872Z,971.36
2018-07-26T05:09:13.846Z,971.39
2018-07-26T05:10:13.844Z,971.38
2018-07-26T05:11:13.849Z,971.40
2018-07-26T05:12:13.853Z,971.41
2018-07-26T05:13:13.859Z,971.42
2018-07-26T05:14:13.869Z,971.40
2018-07-26T05:15:13.870Z,971.39
2018-07-26T05:16:13.873Z,971.39
2018-07-26T05:17:13.879Z,971.43
2018-07-26T05:18:13.883Z,971.42
2018-07-26T05:19:13.988Z,971.38
2018-07-26T05:20:13.893Z,971.44
2018-07-26T05:21:13.899Z,971.40
2018-07-26T05:22:13.906Z,971.38
2018-07-26T05:23:13.908Z,971.38
2018-07-26T05:24:13.913Z,971.40
2018-07-26T05:25:13.913Z,971.38
2018-07-26T05:26:13.917Z,971.39
2018-07-26T05:27:13.922Z,971.42
2018-07-26T05:28:13.923Z,971.40
2018-07-26T05:29:13.935Z,971.42
2018-07-26T05:30:13.931Z,971.40
2018-07-26T05:31:13.935Z,971.44
2018-07-26T05:32:13.934Z,971.44
2018-07-26T05:33:13.938Z,971.43
2018-07-26T05:34:13.943Z,971.44
2018-07-26T05:35:13.947Z,971.42
2018-07-26T05:36:13.945Z,971.43
2018-07-26T05:37:13.947Z,971.44
2018-07-26T05:38:13.951Z,971.42
2018-07-26T05:39:13.952Z,971.42
2018-07-26T05:40:13.959Z,971.39
2018-07-26T05:41:13.957Z,971.43
2018-07-26T05:42:13.965Z,971.43
2018-07-26T05:43:14.000Z,971.37
2018-07-26T05:44:13.969Z,971.38
2018-07-26T05:45:13.969Z,971.34
2018-07-26T05:46:13.975Z,971.35
2018-07-26T05:47:13.974Z,971.35
2018-07-26T05:48:13.975Z,971.38
2018-07-26T05:49:13.973Z,971.40
2018-07-26T05:50:13.977Z,971.41
2018-07-26T05:51:13.978Z,971.45
2018-07-26T05:52:13.989Z,971.43
2018-07-26T05:53:14.039Z,971.47
2018-07-26T05:54:13.983Z,971.50
2018-07-26T05:55:13.999Z,971.51
2018-07-26T05:56:13.989Z,971.45
2018-07-26T05:57:13.994Z,971.51
2018-07-26T05:58:13.990Z,971.48
2018-07-26T05:59:13.997Z,971.49
2018-07-26T06:00:14.037Z,971.48
2018-07-26T06:01:13.996Z,971.52
2018-07-26T06:02:14.002Z,971.50
2018-07-26T06:03:14.005Z,971.52
2018-07-26T06:04:14.002Z,971.51
2018-07-26T06:05:14.012Z,971.49
2018-07-26T06:06:14.008Z,971.54
2018-07-26T06:07:14.016Z,971.48
2018-07-26T06:08:14.016Z,971.51
2018-07-26T06:09:14.015Z,971.48
2018-07-26T06:10:14.015Z,971.51
2018-07-26T06:11:14.021Z,971.52
2018-07-26T06:12:14.019Z,971.47
2018-07-26T06:13:14.016Z,971.49
2018-07-26T06:14:14.016Z,971.48
2018-07-26T06:15:14.021Z,971.49
2018-07-26T06:16:14.021Z,971.49
2018-07-26T06:17:14.112Z,971.52
2018-07-26T06:18:14.024Z,971.51
2018-07-26T06:19:14.029Z,971.54
2018-07-26T06:20:14.035Z,971.53
2018-07-26T06:21:14.034Z,971.59
2018-07-26T06:22:14.042Z,971.57
2018-07-26T06:23:14.035Z,971.58
2018-07-26T06:24:14.040Z,971.53
2018-07-26T06:25:14.040Z,971.56
2018-07-26T06:26:14.039Z,971.57
2018-07-26T06:27:14.054Z,971.56
2018-07-26T06:28:14.091Z,971.57
2018-07-26T06:29:14.046Z,971.59
2018-07-26T06:30:14.049Z,971.61
2018-07-26T06:31:14.051Z,971.59
2018-07-26T06:32:14.053Z,971.56
2018-07-26T06:33:14.055Z,971.59
2018-07-26T06:34:14.075Z,971.57
2018-07-26T06:35:14.064Z,971.62
2018-07-26T06:36:14.061Z,971.59
2018-07-26T06:37:14.068Z,971.59
2018-07-26T06:38:14.065Z,971.56
2018-07-26T06:39:14.066Z,971.54
2018-07-26T06:40:14.070Z,971.57
2018-07-26T06:41:14.081Z,971.52
2018-07-26T06:42:14.074Z,971.53
2018-07-26T06:43:14.078Z,971.54
2018-07-26T06:44:14.079Z,971.52
2018-07-26T06:45:14.081Z,971.50
2018-07-26T06:46:14.091Z,971.52
2018-07-26T06:47:14.086Z,971.50
2018-07-26T06:48:14.087Z,971.47
2018-07-26T06:49:14.098Z,971.53
2018-07-26T06:50:14.094Z,971.48
2018-07-26T06:51:14.096Z,971.49
2018-07-26T06:52:14.100Z,971.46
2018-07-26T06:53:14.107Z,971.46
2018-07-26T06:54:14.103Z,971.45
2018-07-26T06:55:14.105Z,971.43
2018-07-26T06:56:14.115Z,971.44
2018-07-26T06:57:14.110Z,971.45
2018-07-26T06:58:14.114Z,971.46
2018-07-26T06:59:14.120Z,971.47
2018-07-26T07:00:14.118Z,971.49
2018-07-26T07:01:14.120Z,971.44
2018-07-26T07:02:14.126Z,971.44
2018-07-26T07:03:14.130Z,971.46
2018-07-26T07:04:14.131Z,971.43
2018-07-26T07:05:14.133Z,971.45
2018-07-26T07:06:14.139Z,971.47
2018-07-26T07:07:14.137Z,971.46
2018-07-26T07:08:14.139Z,971.46
2018-07-26T07:09:14.145Z,971.45
2018-07-26T07:10:14.150Z,971.44
2018-07-26T07:11:14.149Z,971.46
2018-07-26T07:12:14.149Z,971.46
2018-07-26T07:13:14.158Z,971.41
2018-07-26T07:14:14.158Z,971.44
2018-07-26T07:15:14.161Z,971.44
2018-07-26T07:16:14.165Z,971.46
2018-07-26T07:17:14.168Z,971.44
2018-07-26T07:18:14.168Z,971.46
2018-07-26T07:19:14.182Z,971.47
2018-07-26T07:20:14.180Z,971.47
2018-07-26T07:21:14.179Z,971.43
2018-07-26T07:22:14.180Z,971.40
2018-07-26T07:23:14.184Z,971.44
2018-07-26T07:24:14.190Z,971.39
2018-07-26T07:25:14.189Z,971.44
2018-07-26T07:26:14.199Z,971.43
2018-07-26T07:27:14.201Z,971.41
2018-07-26T07:28:14.199Z,971.39
2018-07-26T07:29:14.203Z,971.38
2018-07-26T07:30:14.207Z,971.41
2018-07-26T07:31:14.215Z,971.42
2018-07-26T07:32:14.215Z,971.38
2018-07-26T07:33:14.272Z,971.40
2018-07-26T07:34:14.223Z,971.42
2018-07-26T07:35:14.228Z,971.40
2018-07-26T07:36:14.230Z,971.43
2018-07-26T07:37:14.236Z,971.40
2018-07-26T07:38:14.234Z,971.43
2018-07-26T07:39:14.237Z,971.41
2018-07-26T07:40:14.243Z,971.45
2018-07-26T07:41:14.243Z,971.43
2018-07-26T07:42:14.251Z,971.39
2018-07-26T07:43:14.256Z,971.45
2018-07-26T07:44:14.253Z,971.43
2018-07-26T07:45:14.258Z,971.43
2018-07-26T07:46:14.260Z,971.43
2018-07-26T07:47:14.321Z,971.46
2018-07-26T07:48:14.267Z,971.42
2018-07-26T07:49:14.273Z,971.45
2018-07-26T07:50:14.277Z,971.42
2018-07-26T07:51:14.281Z,971.56
2018-07-26T07:52:14.283Z,971.47
2018-07-26T07:53:14.288Z,971.50
2018-07-26T07:54:14.291Z,971.48
2018-07-26T07:55:14.297Z,971.49
2018-07-26T07:56:14.297Z,971.42
2018-07-26T07:57:14.306Z,971.45
2018-07-26T07:58:14.308Z,971.43
2018-07-26T07:59:14.318Z,971.39
2018-07-26T08:00:14.320Z,971.40
2018-07-26T08:01:14.323Z,971.43
2018-07-26T08:02:14.322Z,971.41
2018-07-26T08:03:14.327Z,971.40
2018-07-26T08:04:14.327Z,971.36
2018-07-26T08:05:14.372Z,971.36
2018-07-26T08:06:14.342Z,971.36
2018-07-26T08:07:14.338Z,971.43
2018-07-26T08:08:14.347Z,971.43
2018-07-26T08:09:14.346Z,971.43
2018-07-26T08:10:14.349Z,971.34
2018-07-26T08:11:14.403Z,971.35
2018-07-26T08:12:14.359Z,971.35
2018-07-26T08:13:14.359Z,971.41
2018-07-26T08:14:14.367Z,971.34
2018-07-26T08:15:14.371Z,971.32
2018-07-26T08:16:14.369Z,971.34
2018-07-26T08:17:14.372Z,971.35
2018-07-26T08:18:14.380Z,971.42
2018-07-26T08:19:14.379Z,971.40
2018-07-26T08:20:14.383Z,971.40
2018-07-26T08:21:14.393Z,971.33
2018-07-26T08:22:14.435Z,971.48
2018-07-26T08:23:14.393Z,971.44
2018-07-26T08:24:14.394Z,971.43
2018-07-26T08:25:14.403Z,971.42
2018-07-26T08:26:14.403Z,971.42
2018-07-26T08:27:14.406Z,971.37
2018-07-26T08:28:14.413Z,971.40
2018-07-26T08:29:14.412Z,971.43
2018-07-26T08:30:14.413Z,971.41
2018-07-26T08:31:14.418Z,971.34
2018-07-26T08:32:14.427Z,971.32
2018-07-26T08:33:14.424Z,971.31
2018-07-26T08:34:14.430Z,971.29
2018-07-26T08:35:14.507Z,971.35
2018-07-26T08:36:14.440Z,971.36
2018-07-26T08:37:14.438Z,971.30
2018-07-26T08:38:14.442Z,971.28
2018-07-26T08:39:14.446Z,971.37
2018-07-26T08:40:14.449Z,971.30
2018-07-26T08:41:14.462Z,971.28
2018-07-26T08:42:14.457Z,971.31
2018-07-26T08:43:14.459Z,971.34
2018-07-26T08:44:14.464Z,971.29
2018-07-26T08:45:14.465Z,971.38
2018-07-26T08:46:14.471Z,971.37
2018-07-26T08:47:14.478Z,971.26
2018-07-26T08:48:14.510Z,971.29
2018-07-26T08:49:14.481Z,971.26
2018-07-26T08:50:14.490Z,971.27
2018-07-26T08:51:14.490Z,971.23
2018-07-26T08:52:14.511Z,971.24
2018-07-26T08:53:14.497Z,971.27
2018-07-26T08:54:14.559Z,971.29
2018-07-26T08:55:14.509Z,971.25
2018-07-26T08:56:14.512Z,971.19
2018-07-26T08:57:14.508Z,971.19
2018-07-26T08:58:14.514Z,971.23
2018-07-26T08:59:14.519Z,971.26
2018-07-26T09:00:14.522Z,971.21
2018-07-26T09:01:14.598Z,971.21
2018-07-26T09:02:14.530Z,971.20
2018-07-26T09:03:14.538Z,971.20
2018-07-26T09:04:14.537Z,971.14
2018-07-26T09:05:14.540Z,971.21
2018-07-26T09:06:14.545Z,971.18
2018-07-26T09:07:14.554Z,971.18
2018-07-26T09:08:14.552Z,971.10
2018-07-26T09:09:14.562Z,971.10
2018-07-26T09:10:14.561Z,971.10
2018-07-26T09:11:14.570Z,971.12
2018-07-26T09:12:14.566Z,971.13
2018-07-26T09:13:14.576Z,971.18
2018-07-26T09:14:14.578Z,971.09
2018-07-26T09:15:14.581Z,971.15
2018-07-26T09:16:14.583Z,971.10
2018-07-26T09:17:14.639Z,971.09
2018-07-26T09:18:14.595Z,971.07
2018-07-26T09:19:14.597Z,970.98
2018-07-26T09:20:14.605Z,971.11
2018-07-26T09:21:14.611Z,971.05
2018-07-26T09:22:14.609Z,971.04
2018-07-26T09:23:14.611Z,970.94
2018-07-26T09:24:14.622Z,971.02
2018-07-26T09:25:14.621Z,971.02
2018-07-26T09:26:14.690Z,970.99
2018-07-26T09:27:14.630Z,970.98
2018-07-26T09:28:14.633Z,970.92
2018-07-26T09:29:14.640Z,970.92
2018-07-26T09:30:14.641Z,970.94
2018-07-26T09:31:14.648Z,971.01
2018-07-26T09:32:14.649Z,971.01
2018-07-26T09:33:14.693Z,970.99
2018-07-26T09:34:14.661Z,971.02
2018-07-26T09:35:14.663Z,970.95
2018-07-26T09:36:14.666Z,970.95
2018-07-26T09:37:14.672Z,970.93
2018-07-26T09:38:14.678Z,970.95
2018-07-26T09:39:14.684Z,970.94
2018-07-26T09:40:14.684Z,970.93
2018-07-26T09:41:14.691Z,970.89
2018-07-26T09:42:14.697Z,970.88
2018-07-26T09:43:14.702Z,970.88
2018-07-26T09:44:14.706Z,970.84
2018-07-26T09:45:14.710Z,970.86
2018-07-26T09:46:14.711Z,970.85
2018-07-26T09:47:14.731Z,970.90
2018-07-26T09:48:14.725Z,970.90
2018-07-26T09:49:14.728Z,970.90
2018-07-26T09:50:14.731Z,970.84
2018-07-26T09:51:14.733Z,970.81
2018-07-26T09:52:14.742Z,970.85
2018-07-26T09:53:14.741Z,970.79
2018-07-26T09:54:14.747Z,970.80
2018-07-26T09:55:14.752Z,970.78
2018-07-26T09:56:14.763Z,970.77
2018-07-26T09:57:14.759Z,970.78
2018-07-26T09:58:14.765Z,970.77
2018-07-26T09:59:14.773Z,970.73
2018-07-26T10:00:14.833Z,970.73
2018-07-26T10:01:14.784Z,970.72
2018-07-26T10:02:14.785Z,970.66
2018-07-26T10:03:14.793Z,970.70
2018-07-26T10:04:14.792Z,970.65
2018-07-26T10:05:14.802Z,970.69
2018-07-26T10:06:14.806Z,970.71
2018-07-26T10:07:14.814Z,970.68
2018-07-26T10:08:14.812Z,970.65
2018-07-26T10:09:14.815Z,970.62
2018-07-26T10:10:14.829Z,970.66
2018-07-26T10:11:14.832Z,970.64
2018-07-26T10:12:14.832Z,970.64
2018-07-26T10:13:14.842Z,970.64
2018-07-26T10:14:14.848Z,970.63
2018-07-26T10:15:14.851Z,970.61
2018-07-26T10:16:14.852Z,970.68
2018-07-26T10:17:14.864Z,970.66
2018-07-26T10:18:14.864Z,970.70
2018-07-26T10:19:14.867Z,970.73
2018-07-26T10:20:14.966Z,970.69
2018-07-26T10:21:14.881Z,970.63
2018-07-26T10:22:14.883Z,970.66
2018-07-26T10:23:14.889Z,970.73
2018-07-26T10:24:14.901Z,970.72
2018-07-26T10:25:14.898Z,970.67
2018-07-26T10:26:14.911Z,970.63
2018-07-26T10:27:14.912Z,970.65
2018-07-26T10:28:14.916Z,970.61
2018-07-26T10:29:14.920Z,970.57
2018-07-26T10:30:14.928Z,970.58
2018-07-26T10:31:14.932Z,970.59
2018-07-26T10:32:14.931Z,970.61
2018-07-26T10:33:14.938Z,970.53
2018-07-26T10:34:14.944Z,970.55
2018-07-26T10:35:14.955Z,970.55
2018-07-26T10:36:14.954Z,970.56
2018-07-26T10:37:14.958Z,970.61
2018-07-26T10:38:14.962Z,970.59
2018-07-26T10:39:14.967Z,970.61
2018-07-26T10:40:14.972Z,970.70
2018-07-26T10:41:14.977Z,970.60
2018-07-26T10:42:14.986Z,970.64
2018-07-26T10:43:14.986Z,970.66
2018-07-26T10:44:14.990Z,970.62
2018-07-26T10:45:14.998Z,970.57
2018-07-26T10:46:15.008Z,970.71
2018-07-26T10:47:15.012Z,970.85
2018-07-26T10:48:15.013Z,970.73
2018-07-26T10:49:15.016Z,970.55
2018-07-26T10:50:15.024Z,970.60
2018-07-26T10:51:15.027Z,970.45
2018-07-26T10:52:15.032Z,970.49
2018-07-26T10:53:15.042Z,970.51
2018-07-26T10:54:15.040Z,970.60
2018-07-26T10:55:15.050Z,970.61
2018-07-26T10:56:15.057Z,970.67
2018-07-26T10:57:15.057Z,970.57
2018-07-26T10:58:15.060Z,970.60
2018-07-26T10:59:15.067Z,970.45
2018-07-26T11:00:15.102Z,970.49
2018-07-26T11:01:15.076Z,970.47
2018-07-26T11:02:15.080Z,970.47
2018-07-26T11:03:15.090Z,970.59
2018-07-26T11:04:15.093Z,970.55
2018-07-26T11:05:15.097Z,970.58
2018-07-26T11:06:15.102Z,970.48
2018-07-26T11:07:15.107Z,970.47
2018-07-26T11:08:15.111Z,970.51
2018-07-26T11:09:15.116Z,970.51
2018-07-26T11:10:15.122Z,970.53
2018-07-26T11:11:15.132Z,970.47
2018-07-26T11:12:15.131Z,970.47
2018-07-26T11:13:15.136Z,970.39
2018-07-26T11:14:15.141Z,970.44
2018-07-26T11:15:15.160Z,970.37
2018-07-26T11:16:15.152Z,970.36
2018-07-26T11:17:15.156Z,970.34
2018-07-26T11:18:15.161Z,970.35
2018-07-26T11:19:15.166Z,970.39
2018-07-26T11:20:15.176Z,970.34
2018-07-26T11:21:15.179Z,970.35
2018-07-26T11:22:15.182Z,970.47
2018-07-26T11:23:15.190Z,970.42
2018-07-26T11:24:15.227Z,970.40
2018-07-26T11:25:15.196Z,970.54
2018-07-26T11:26:15.208Z,970.47
2018-07-26T11:27:15.209Z,970.59
2018-07-26T11:28:15.213Z,970.47
2018-07-26T11:29:15.217Z,970.41
2018-07-26T11:30:15.221Z,970.43
2018-07-26T11:31:15.229Z,970.43
2018-07-26T11:32:15.241Z,970.32
2018-07-26T11:33:15.245Z,970.36
2018-07-26T11:34:15.241Z,970.33
2018-07-26T11:35:15.253Z,970.39
2018-07-26T11:36:15.269Z,970.49
2018-07-26T11:37:15.262Z,970.36
2018-07-26T11:38:15.263Z,970.34
2018-07-26T11:39:15.272Z,970.25
2018-07-26T11:40:15.274Z,970.27
2018-07-26T11:41:15.337Z,970.31
2018-07-26T11:42:15.285Z,970.21
2018-07-26T11:43:15.289Z,970.16
2018-07-26T11:44:15.299Z,970.16
2018-07-26T11:45:15.298Z,970.21
2018-07-26T11:46:15.312Z,970.23
2018-07-26T11:47:15.313Z,970.20
2018-07-26T11:48:15.315Z,970.38
2018-07-26T11:49:15.322Z,970.31
2018-07-26T11:50:15.401Z,970.28
2018-07-26T11:51:15.332Z,970.19
2018-07-26T11:52:15.335Z,970.21
2018-07-26T11:53:15.343Z,970.22
2018-07-26T11:54:15.352Z,970.17
2018-07-26T11:55:15.358Z,970.17
2018-07-26T11:56:15.362Z,970.18
2018-07-26T11:57:15.364Z,970.35
2018-07-26T11:58:15.368Z,970.18
2018-07-26T11:59:15.375Z,970.19
2018-07-26T12:00:15.379Z,970.17
2018-07-26T12:01:15.386Z,970.18
2018-07-26T12:02:15.390Z,970.06
2018-07-26T12:03:15.392Z,970.05
2018-07-26T12:04:15.401Z,970.01
2018-07-26T12:05:15.409Z,970.05
2018-07-26T12:06:15.407Z,970.14
2018-07-26T12:07:15.414Z,970.06
2018-07-26T12:08:15.489Z,970.03
2018-07-26T12:09:15.424Z,969.95
2018-07-26T12:10:15.429Z,970.09
2018-07-26T12:11:15.436Z,970.07
2018-07-26T12:12:15.442Z,970.09
2018-07-26T12:13:15.445Z,970.07
2018-07-26T12:14:15.500Z,970.06
2018-07-26T12:15:15.457Z,970.01
2018-07-26T12:16:15.467Z,970.01
2018-07-26T12:17:15.468Z,969.95
2018-07-26T12:18:15.476Z,969.99
2018-07-26T12:19:15.480Z,969.96
2018-07-26T12:20:15.481Z,969.96
2018-07-26T12:21:15.489Z,969.85
2018-07-26T12:22:15.497Z,970.04
2018-07-26T12:23:15.503Z,969.86
2018-07-26T12:24:15.511Z,970.01
2018-07-26T12:25:15.513Z,970.11
2018-07-26T12:26:15.515Z,970.00
2018-07-26T12:27:15.521Z,970.00
2018-07-26T12:28:15.524Z,969.84